Crossville Memorial Whitson Field
KCSV : now visible

Airfield :











YOU CAN JOIN US ON...

 
LOGIN :

Register | Disclaimer

   EN    FR    IT 

 









Legend :    VFR   Marginal VFR   IFR   Intensive IFR   Very Intensive IFR
Visi :
Ceiling :
>= 8 km
>= 3000ft
5 to 8 km
1000 to 3000 ft
1500m to 5 km
500 to 1000 ft
800 to 1500m
200 to 500 ft
< 800m
< 200 ft
Symbols :   Thunderstorms  Fog  Heavy snow  Heavy precipitations  Wind > 20 kt







- Airport Elevation : 1881 ft


KCSV - Crossville Memorial Whitson Field

CURRENT METAR :
  • 210553Z AUTO 00000KT 9SM OVC004 22/21 A3005 RMK AO2 SLP152 60002 T02220211 10222 20217 403000206 58012

EXPIRED METARs :
  • 210522Z AUTO 00000KT 10SM OVC004 22/21 A3005 RMK AO2 T02220211
  • 210453Z AUTO 34003KT 10SM OVC008 22/21 A3007 RMK AO2 CIG 003V012 SLP158 T02220211
  • 210418Z AUTO VRB03KT 10SM BKN012 22/21 A3008 RMK AO2 T02220211
  • 210353Z AUTO VRB03KT 10SM CLR 22/21 A3009 RMK AO2 SLP168 T02220206

TAF KCSV
Valid from the 21 at 06:00 until the 22 at 06:00 UTC


210530Z 2106/2206 VRB03KT P6SM OVC008
FM210900 00000KT 4SM BR OVC004
FM211200 20005KT P6SM OVC020
FM211800 21007KT P6SM VCTS BKN020CB
KZTL FIR / North America



MET'MAP, your aeronautical weather chart ! - Copyright ORBIFLY December 2007 - Disclaimer

ORBIFLY MET'MAP TEAM :

Programming & Development : Alexandra Zaïnal
Concept & Development : Baudouin d'Aumeries
Co-Development & Prog : Marc-Olivier Méhu
Technical & hardware support : Manuel Goepfert

Contact : metmap@orbifly.com




SOURCES & CREDITS :

   NOAA       Earth
Advisory